sensor_id;sensor_type;location;lat;lon;timestamp;pressure;altitude;pressure_sealevel;temperature;humidity
42691;BME280;28306;55.744;37.578;2022-09-09T00:02:20;100569.97;;;15.80;42.33
42691;BME280;28306;55.744;37.578;2022-09-09T00:05:15;100568.94;;;15.81;42.18
42691;BME280;28306;55.744;37.578;2022-09-09T00:07:48;100582.94;;;15.77;42.29
42691;BME280;28306;55.744;37.578;2022-09-09T00:10:29;100565.28;;;15.74;42.31
42691;BME280;28306;55.744;37.578;2022-09-09T00:13:11;100579.19;;;15.78;42.40
42691;BME280;28306;55.744;37.578;2022-09-09T00:15:57;100573.00;;;15.77;42.17
42691;BME280;28306;55.744;37.578;2022-09-09T00:21:14;100572.84;;;15.79;42.23
42691;BME280;28306;55.744;37.578;2022-09-09T00:23:51;100578.38;;;15.77;42.25
42691;BME280;28306;55.744;37.578;2022-09-09T00:26:38;100567.97;;;15.74;42.15
42691;BME280;28306;55.744;37.578;2022-09-09T00:31:38;100564.69;;;15.64;41.94
42691;BME280;28306;55.744;37.578;2022-09-09T00:34:18;100576.66;;;15.76;42.27
42691;BME280;28306;55.744;37.578;2022-09-09T00:36:45;100587.59;;;15.75;42.10
42691;BME280;28306;55.744;37.578;2022-09-09T00:44:38;100583.13;;;15.67;42.34
42691;BME280;28306;55.744;37.578;2022-09-09T00:47:40;100597.97;;;15.78;42.28
42691;BME280;28306;55.744;37.578;2022-09-09T00:53:14;100580.63;;;15.65;42.07
42691;BME280;28306;55.744;37.578;2022-09-09T00:56:07;100597.66;;;15.73;42.22
42691;BME280;28306;55.744;37.578;2022-09-09T00:58:34;100602.22;;;15.72;42.28
42691;BME280;28306;55.744;37.578;2022-09-09T01:01:07;100606.09;;;15.70;42.28
42691;BME280;28306;55.744;37.578;2022-09-09T01:03:38;100600.31;;;15.81;42.14
42691;BME280;28306;55.744;37.578;2022-09-09T01:11:24;100601.63;;;15.85;41.76
42691;BME280;28306;55.744;37.578;2022-09-09T01:16:47;100611.25;;;15.71;42.13
42691;BME280;28306;55.744;37.578;2022-09-09T01:19:24;100613.31;;;15.69;42.32
42691;BME280;28306;55.744;37.578;2022-09-09T01:22:05;100614.84;;;15.63;42.24
42691;BME280;28306;55.744;37.578;2022-09-09T01:27:53;100609.84;;;15.60;42.40
42691;BME280;28306;55.744;37.578;2022-09-09T01:30:21;100617.88;;;15.60;42.17
42691;BME280;28306;55.744;37.578;2022-09-09T01:32:55;100625.41;;;15.65;42.25
42691;BME280;28306;55.744;37.578;2022-09-09T01:37:59;100621.22;;;15.62;42.24
42691;BME280;28306;55.744;37.578;2022-09-09T01:40:26;100627.06;;;15.66;42.37
42691;BME280;28306;55.744;37.578;2022-09-09T01:42:53;100632.63;;;15.64;42.10
42691;BME280;28306;55.744;37.578;2022-09-09T01:45:21;100629.63;;;15.59;42.28
42691;BME280;28306;55.744;37.578;2022-09-09T01:47:47;100634.44;;;15.64;42.33
42691;BME280;28306;55.744;37.578;2022-09-09T01:50:33;100636.13;;;15.65;42.26
42691;BME280;28306;55.744;37.578;2022-09-09T01:53:01;100641.50;;;15.65;42.32
42691;BME280;28306;55.744;37.578;2022-09-09T01:55:42;100637.13;;;15.64;42.20
42691;BME280;28306;55.744;37.578;2022-09-09T01:59:05;100637.81;;;15.66;42.38
42691;BME280;28306;55.744;37.578;2022-09-09T02:01:46;100655.19;;;15.70;42.39
42691;BME280;28306;55.744;37.578;2022-09-09T02:12:32;100644.19;;;15.65;42.13
42691;BME280;28306;55.744;37.578;2022-09-09T02:15:11;100647.84;;;15.64;42.39
42691;BME280;28306;55.744;37.578;2022-09-09T02:17:50;100653.41;;;15.62;42.42
42691;BME280;28306;55.744;37.578;2022-09-09T02:20:18;100653.59;;;15.61;42.33
42691;BME280;28306;55.744;37.578;2022-09-09T02:22:53;100649.09;;;15.53;42.26
42691;BME280;28306;55.744;37.578;2022-09-09T02:25:23;100659.47;;;15.56;42.43
42691;BME280;28306;55.744;37.578;2022-09-09T02:27:52;100667.16;;;15.59;42.46
42691;BME280;28306;55.744;37.578;2022-09-09T02:30:19;100654.97;;;15.57;42.24
42691;BME280;28306;55.744;37.578;2022-09-09T02:32:57;100661.97;;;15.58;42.31
42691;BME280;28306;55.744;37.578;2022-09-09T02:35:39;100649.00;;;15.46;42.23
42691;BME280;28306;55.744;37.578;2022-09-09T02:38:10;100669.03;;;15.59;42.25
42691;BME280;28306;55.744;37.578;2022-09-09T02:40:40;100665.38;;;15.52;42.47
42691;BME280;28306;55.744;37.578;2022-09-09T02:43:06;100678.94;;;15.58;42.42
42691;BME280;28306;55.744;37.578;2022-09-09T02:45:47;100670.56;;;15.53;42.41
42691;BME280;28306;55.744;37.578;2022-09-09T02:51:06;100683.44;;;15.58;42.52
42691;BME280;28306;55.744;37.578;2022-09-09T02:56:52;100699.53;;;15.58;42.28
42691;BME280;28306;55.744;37.578;2022-09-09T02:59:27;100686.66;;;15.53;42.39
42691;BME280;28306;55.744;37.578;2022-09-09T03:01:55;100698.88;;;15.56;42.37
42691;BME280;28306;55.744;37.578;2022-09-09T03:04:22;100685.34;;;15.49;42.41
42691;BME280;28306;55.744;37.578;2022-09-09T03:06:50;100695.38;;;15.55;42.21
42691;BME280;28306;55.744;37.578;2022-09-09T03:09:19;100687.56;;;15.45;42.45
42691;BME280;28306;55.744;37.578;2022-09-09T03:11:44;100694.06;;;15.51;42.33
42691;BME280;28306;55.744;37.578;2022-09-09T03:14:15;100700.41;;;15.50;42.36
42691;BME280;28306;55.744;37.578;2022-09-09T03:16:41;100702.56;;;15.55;42.41
42691;BME280;28306;55.744;37.578;2022-09-09T03:19:08;100702.75;;;15.53;42.33
42691;BME280;28306;55.744;37.578;2022-09-09T03:21:34;100687.56;;;15.45;42.48
42691;BME280;28306;55.744;37.578;2022-09-09T03:24:01;100700.91;;;15.54;42.49
42691;BME280;28306;55.744;37.578;2022-09-09T03:26:29;100699.78;;;15.48;42.42
42691;BME280;28306;55.744;37.578;2022-09-09T03:28:56;100702.75;;;15.53;42.41
42691;BME280;28306;55.744;37.578;2022-09-09T03:31:23;100707.28;;;15.53;42.26
42691;BME280;28306;55.744;37.578;2022-09-09T03:33:50;100710.97;;;15.52;42.28
42691;BME280;28306;55.744;37.578;2022-09-09T03:36:18;100720.53;;;15.54;42.44
42691;BME280;28306;55.744;37.578;2022-09-09T03:38:44;100722.38;;;15.54;42.33
42691;BME280;28306;55.744;37.578;2022-09-09T03:41:11;100714.69;;;15.50;42.42
42691;BME280;28306;55.744;37.578;2022-09-09T03:43:38;100729.41;;;15.55;42.23
42691;BME280;28306;55.744;37.578;2022-09-09T03:46:04;100732.94;;;15.55;42.38
42691;BME280;28306;55.744;37.578;2022-09-09T03:48:30;100709.56;;;15.41;42.27
42691;BME280;28306;55.744;37.578;2022-09-09T03:50:56;100724.56;;;15.50;42.18
42691;BME280;28306;55.744;37.578;2022-09-09T03:53:27;100734.94;;;15.53;42.34
42691;BME280;28306;55.744;37.578;2022-09-09T03:55:54;100734.75;;;15.55;42.39
42691;BME280;28306;55.744;37.578;2022-09-09T03:58:22;100741.81;;;15.56;42.40
42691;BME280;28306;55.744;37.578;2022-09-09T04:00:58;100740.63;;;15.58;42.30
42691;BME280;28306;55.744;37.578;2022-09-09T04:03:26;100730.94;;;15.49;42.20
42691;BME280;28306;55.744;37.578;2022-09-09T04:05:52;100737.94;;;15.58;42.27
42691;BME280;28306;55.744;37.578;2022-09-09T04:08:19;100732.06;;;15.55;42.09
42691;BME280;28306;55.744;37.578;2022-09-09T04:10:49;100743.97;;;15.60;42.25
42691;BME280;28306;55.744;37.578;2022-09-09T04:13:17;100741.44;;;15.59;42.04
42691;BME280;28306;55.744;37.578;2022-09-09T04:15:50;100747.47;;;15.61;42.24
42691;BME280;28306;55.744;37.578;2022-09-09T04:18:16;100741.28;;;15.60;41.98
42691;BME280;28306;55.744;37.578;2022-09-09T04:20:42;100749.16;;;15.62;42.10
42691;BME280;28306;55.744;37.578;2022-09-09T04:23:09;100752.00;;;15.60;42.02
42691;BME280;28306;55.744;37.578;2022-09-09T04:25:34;100744.31;;;15.57;42.24
42691;BME280;28306;55.744;37.578;2022-09-09T04:28:00;100748.78;;;15.65;42.07
42691;BME280;28306;55.744;37.578;2022-09-09T04:30:27;100753.97;;;15.66;42.20
42691;BME280;28306;55.744;37.578;2022-09-09T04:32:53;100750.47;;;15.66;41.93
42691;BME280;28306;55.744;37.578;2022-09-09T04:35:19;100718.53;;;15.48;41.85
42691;BME280;28306;55.744;37.578;2022-09-09T04:37:46;100756.31;;;15.70;42.13
42691;BME280;28306;55.744;37.578;2022-09-09T04:40:11;100751.78;;;15.70;42.08
42691;BME280;28306;55.744;37.578;2022-09-09T04:42:38;100758.00;;;15.71;42.13
42691;BME280;28306;55.744;37.578;2022-09-09T04:45:05;100758.00;;;15.71;41.91
42691;BME280;28306;55.744;37.578;2022-09-09T04:47:33;100756.97;;;15.72;41.92
42691;BME280;28306;55.744;37.578;2022-09-09T04:50:01;100744.59;;;15.62;42.03
42691;BME280;28306;55.744;37.578;2022-09-09T04:52:27;100748.75;;;15.73;41.91
42691;BME280;28306;55.744;37.578;2022-09-09T04:54:53;100757.81;;;15.72;42.05
42691;BME280;28306;55.744;37.578;2022-09-09T04:57:19;100761.16;;;15.74;41.87
42691;BME280;28306;55.744;37.578;2022-09-09T04:59:46;100755.47;;;15.77;42.07
42691;BME280;28306;55.744;37.578;2022-09-09T05:02:12;100751.78;;;15.78;41.91
42691;BME280;28306;55.744;37.578;2022-09-09T05:04:37;100757.16;;;15.78;41.75
42691;BME280;28306;55.744;37.578;2022-09-09T05:07:03;100743.53;;;15.72;41.75
42691;BME280;28306;55.744;37.578;2022-09-09T05:09:29;100765.03;;;15.80;41.79
42691;BME280;28306;55.744;37.578;2022-09-09T05:11:55;100741.09;;;15.62;41.68
42691;BME280;28306;55.744;37.578;2022-09-09T05:14:34;100764.34;;;15.78;41.71
42691;BME280;28306;55.744;37.578;2022-09-09T05:17:03;100778.06;;;15.83;41.82
42691;BME280;28306;55.744;37.578;2022-09-09T05:19:29;100764.34;;;15.78;41.66
42691;BME280;28306;55.744;37.578;2022-09-09T05:21:56;100779.72;;;15.84;41.74
42691;BME280;28306;55.744;37.578;2022-09-09T05:24:29;100781.25;;;15.87;41.83
42691;BME280;28306;55.744;37.578;2022-09-09T05:26:58;100777.22;;;15.82;41.51
42691;BME280;28306;55.744;37.578;2022-09-09T05:29:27;100777.34;;;15.89;41.71
42691;BME280;28306;55.744;37.578;2022-09-09T05:31:54;100771.69;;;15.84;41.58
42691;BME280;28306;55.744;37.578;2022-09-09T05:34:20;100773.53;;;15.83;41.75
42691;BME280;28306;55.744;37.578;2022-09-09T05:36:46;100776.03;;;15.85;41.74
42691;BME280;28306;55.744;37.578;2022-09-09T05:39:13;100776.03;;;15.85;41.88
42691;BME280;28306;55.744;37.578;2022-09-09T05:41:38;100785.41;;;15.89;41.74
42691;BME280;28306;55.744;37.578;2022-09-09T05:44:05;100775.16;;;15.93;41.60
42691;BME280;28306;55.744;37.578;2022-09-09T05:46:38;100769.00;;;15.84;41.53
42691;BME280;28306;55.744;37.578;2022-09-09T05:49:04;100784.03;;;15.93;41.75
42691;BME280;28306;55.744;37.578;2022-09-09T05:51:32;100793.09;;;15.92;41.68
42691;BME280;28306;55.744;37.578;2022-09-09T05:54:02;100783.03;;;15.94;41.65
42691;BME280;28306;55.744;37.578;2022-09-09T05:56:32;100783.06;;;15.86;41.46
42691;BME280;28306;55.744;37.578;2022-09-09T05:58:59;100791.75;;;15.96;41.66
42691;BME280;28306;55.744;37.578;2022-09-09T06:01:33;100800.63;;;15.97;41.80
42691;BME280;28306;55.744;37.578;2022-09-09T06:04:01;100793.59;;;15.96;41.78
42691;BME280;28306;55.744;37.578;2022-09-09T06:06:33;100797.09;;;15.96;41.85
42691;BME280;28306;55.744;37.578;2022-09-09T06:09:06;100799.78;;;15.96;41.71
42691;BME280;28306;55.744;37.578;2022-09-09T06:11:36;100796.47;;;15.94;41.59
42691;BME280;28306;55.744;37.578;2022-09-09T06:14:03;100794.47;;;15.88;41.74
42691;BME280;28306;55.744;37.578;2022-09-09T06:16:30;100783.06;;;15.86;41.46
42691;BME280;28306;55.744;37.578;2022-09-09T06:18:58;100820.72;;;16.01;41.52
42691;BME280;28306;55.744;37.578;2022-09-09T06:21:32;100818.88;;;16.01;41.63
42691;BME280;28306;55.744;37.578;2022-09-09T06:24:07;100817.03;;;16.02;41.52
42691;BME280;28306;55.744;37.578;2022-09-09T06:26:42;100815.84;;;16.04;41.60
42691;BME280;28306;55.744;37.578;2022-09-09T06:29:10;100814.19;;;16.03;41.41
42691;BME280;28306;55.744;37.578;2022-09-09T06:31:37;100820.19;;;16.06;41.42
42691;BME280;28306;55.744;37.578;2022-09-09T06:34:09;100801.66;;;15.96;41.48
42691;BME280;28306;55.744;37.578;2022-09-09T06:36:39;100810.81;;;16.01;41.28
42691;BME280;28306;55.744;37.578;2022-09-09T06:39:06;100815.66;;;16.06;41.56
42691;BME280;28306;55.744;37.578;2022-09-09T06:41:33;100822.53;;;16.09;41.39
42691;BME280;28306;55.744;37.578;2022-09-09T06:44:00;100811.50;;;16.03;41.37
42691;BME280;28306;55.744;37.578;2022-09-09T06:46:37;100829.22;;;16.13;41.50
42691;BME280;28306;55.744;37.578;2022-09-09T06:49:05;100807.78;;;16.04;41.46
42691;BME280;28306;55.744;37.578;2022-09-09T06:51:33;100820.97;;;16.14;41.34
42691;BME280;28306;55.744;37.578;2022-09-09T06:54:02;100830.69;;;16.15;41.17
42691;BME280;28306;55.744;37.578;2022-09-09T06:56:36;100821.88;;;16.07;41.25
42691;BME280;28306;55.744;37.578;2022-09-09T06:59:07;100842.66;;;16.13;41.20
42691;BME280;28306;55.744;37.578;2022-09-09T07:01:37;100843.94;;;16.17;41.12
42691;BME280;28306;55.744;37.578;2022-09-09T07:04:07;100837.41;;;16.19;41.18
42691;BME280;28306;55.744;37.578;2022-09-09T07:06:37;100823.97;;;16.19;41.23
42691;BME280;28306;55.744;37.578;2022-09-09T07:09:07;100842.25;;;16.24;41.08
42691;BME280;28306;55.744;37.578;2022-09-09T07:11:38;100852.25;;;16.30;40.88
42691;BME280;28306;55.744;37.578;2022-09-09T07:14:04;100842.00;;;16.34;40.91
42691;BME280;28306;55.744;37.578;2022-09-09T07:16:30;100842.47;;;16.37;40.79
42691;BME280;28306;55.744;37.578;2022-09-09T07:19:03;100850.66;;;16.44;40.65
42691;BME280;28306;55.744;37.578;2022-09-09T07:21:30;100849.72;;;16.52;40.68
42691;BME280;28306;55.744;37.578;2022-09-09T07:23:56;100848.19;;;16.57;40.29
42691;BME280;28306;55.744;37.578;2022-09-09T07:26:24;100852.75;;;16.57;40.34
42691;BME280;28306;55.744;37.578;2022-09-09T07:28:52;100852.84;;;16.64;40.14
42691;BME280;28306;55.744;37.578;2022-09-09T07:31:28;100850.41;;;16.77;39.94
42691;BME280;28306;55.744;37.578;2022-09-09T07:33:57;100845.25;;;16.90;39.85
42691;BME280;28306;55.744;37.578;2022-09-09T07:36:32;100861.59;;;17.04;39.64
42691;BME280;28306;55.744;37.578;2022-09-09T07:39:10;100861.78;;;17.02;39.58
42691;BME280;28306;55.744;37.578;2022-09-09T07:41:42;100870.84;;;17.01;39.52
42691;BME280;28306;55.744;37.578;2022-09-09T07:44:18;100872.03;;;16.99;39.59
42691;BME280;28306;55.744;37.578;2022-09-09T07:46:48;100872.22;;;16.97;39.58
42691;BME280;28306;55.744;37.578;2022-09-09T07:49:17;100876.59;;;16.98;39.56
42691;BME280;28306;55.744;37.578;2022-09-09T07:51:46;100874.72;;;16.99;39.42
42691;BME280;28306;55.744;37.578;2022-09-09T07:54:16;100881.44;;;17.03;39.54
42691;BME280;28306;55.744;37.578;2022-09-09T07:56:47;100876.50;;;17.06;39.29
42691;BME280;28306;55.744;37.578;2022-09-09T07:59:13;100882.06;;;17.05;39.46
42691;BME280;28306;55.744;37.578;2022-09-09T08:01:49;100887.75;;;17.10;39.42
42691;BME280;28306;55.744;37.578;2022-09-09T08:04:19;100886.91;;;17.09;39.47
42691;BME280;28306;55.744;37.578;2022-09-09T08:06:53;100889.41;;;17.11;39.36
42691;BME280;28306;55.744;37.578;2022-09-09T08:09:20;100877.38;;;17.22;39.30
42691;BME280;28306;55.744;37.578;2022-09-09T08:11:47;100878.28;;;17.14;39.14
42691;BME280;28306;55.744;37.578;2022-09-09T08:14:13;100873.75;;;17.15;39.31
42691;BME280;28306;55.744;37.578;2022-09-09T08:16:42;100872.81;;;17.07;39.12
42691;BME280;28306;55.744;37.578;2022-09-09T08:19:10;100873.91;;;17.13;39.28
42691;BME280;28306;55.744;37.578;2022-09-09T08:21:39;100875.78;;;17.13;39.18
42691;BME280;28306;55.744;37.578;2022-09-09T08:24:07;100872.91;;;17.14;39.17
42691;BME280;28306;55.744;37.578;2022-09-09T08:26:39;100873.56;;;17.16;38.96
42691;BME280;28306;55.744;37.578;2022-09-09T08:29:07;100881.56;;;17.24;39.00
42691;BME280;28306;55.744;37.578;2022-09-09T08:31:36;100880.53;;;17.25;38.90
42691;BME280;28306;55.744;37.578;2022-09-09T08:34:04;100874.69;;;17.22;38.91
42691;BME280;28306;55.744;37.578;2022-09-09T08:36:34;100888.22;;;17.28;38.57
42691;BME280;28306;55.744;37.578;2022-09-09T08:39:01;100887.41;;;17.28;38.79
42691;BME280;28306;55.744;37.578;2022-09-09T08:46:54;100893.00;;;17.41;38.70
42691;BME280;28306;55.744;37.578;2022-09-09T08:49:42;100882.41;;;17.40;38.51
42691;BME280;28306;55.744;37.578;2022-09-09T08:52:20;100895.31;;;17.44;38.54
42691;BME280;28306;55.744;37.578;2022-09-09T08:54:47;100904.38;;;17.43;38.66
42691;BME280;28306;55.744;37.578;2022-09-09T08:57:19;100889.25;;;17.42;38.58
42691;BME280;28306;55.744;37.578;2022-09-09T08:59:46;100897.78;;;17.46;38.77
42691;BME280;28306;55.744;37.578;2022-09-09T09:10:58;100909.03;;;17.50;38.66
42691;BME280;28306;55.744;37.578;2022-09-09T09:13:32;100917.47;;;17.46;38.83
42691;BME280;28306;55.744;37.578;2022-09-09T09:18:54;100903.16;;;17.46;38.76
42691;BME280;28306;55.744;37.578;2022-09-09T09:21:42;100908.84;;;17.51;38.90
42691;BME280;28306;55.744;37.578;2022-09-09T09:26:43;100901.59;;;17.52;38.87
42691;BME280;28306;55.744;37.578;2022-09-09T09:29:17;100887.59;;;17.56;37.81
42691;BME280;28306;55.744;37.578;2022-09-09T09:31:56;100907.94;;;17.59;38.61
42691;BME280;28306;55.744;37.578;2022-09-09T09:34:25;100900.88;;;17.58;38.61
42691;BME280;28306;55.744;37.578;2022-09-09T09:36:53;100908.75;;;17.59;38.71
42691;BME280;28306;55.744;37.578;2022-09-09T09:39:28;100907.56;;;17.62;38.74
42691;BME280;28306;55.744;37.578;2022-09-09T09:41:58;100901.31;;;17.61;38.62
42691;BME280;28306;55.744;37.578;2022-09-09T09:44:33;100892.41;;;17.61;38.64
42691;BME280;28306;55.744;37.578;2022-09-09T09:47:20;100902.06;;;17.70;38.62
42691;BME280;28306;55.744;37.578;2022-09-09T09:50:16;100899.53;;;17.83;38.48
42691;BME280;28306;55.744;37.578;2022-09-09T09:52:42;100901.31;;;17.76;38.30
42691;BME280;28306;55.744;37.578;2022-09-09T09:55:18;100883.53;;;17.60;38.52
42691;BME280;28306;55.744;37.578;2022-09-09T09:57:45;100898.06;;;17.66;38.36
42691;BME280;28306;55.744;37.578;2022-09-09T10:00:15;100879.53;;;17.56;38.53
42691;BME280;28306;55.744;37.578;2022-09-09T10:02:47;100902.63;;;17.65;38.53
42691;BME280;28306;55.744;37.578;2022-09-09T10:05:27;100894.94;;;17.62;38.60
42691;BME280;28306;55.744;37.578;2022-09-09T10:08:10;100895.19;;;17.68;38.57
42691;BME280;28306;55.744;37.578;2022-09-09T10:19:00;100898.63;;;17.76;38.35
42691;BME280;28306;55.744;37.578;2022-09-09T10:51:22;100909.94;;;17.87;38.23
42691;BME280;28306;55.744;37.578;2022-09-09T10:56:38;100910.88;;;17.79;38.27
42691;BME280;28306;55.744;37.578;2022-09-09T10:59:12;100913.00;;;17.83;38.23
42691;BME280;28306;55.744;37.578;2022-09-09T11:02:03;100916.66;;;17.91;38.21
42691;BME280;28306;55.744;37.578;2022-09-09T11:04:45;100912.75;;;17.93;38.16
42691;BME280;28306;55.744;37.578;2022-09-09T11:07:27;100907.94;;;17.89;38.20
42691;BME280;28306;55.744;37.578;2022-09-09T11:09:59;100894.81;;;17.86;38.09
42691;BME280;28306;55.744;37.578;2022-09-09T11:12:27;100905.69;;;18.07;37.98
42691;BME280;28306;55.744;37.578;2022-09-09T11:15:06;100905.78;;;17.99;37.93
42691;BME280;28306;55.744;37.578;2022-09-09T11:17:45;100906.34;;;17.94;37.97
42691;BME280;28306;55.744;37.578;2022-09-09T11:20:13;100906.53;;;17.93;38.14
42691;BME280;28306;55.744;37.578;2022-09-09T11:22:45;100910.16;;;18.00;37.86
42691;BME280;28306;55.744;37.578;2022-09-09T11:38:51;100911.44;;;18.04;38.07
42691;BME280;28306;55.744;37.578;2022-09-09T11:41:19;100913.09;;;18.05;37.92
42691;BME280;28306;55.744;37.578;2022-09-09T11:43:52;100912.09;;;18.06;38.06
42691;BME280;28306;55.744;37.578;2022-09-09T11:46:32;100899.38;;;18.00;38.00
42691;BME280;28306;55.744;37.578;2022-09-09T11:49:03;100912.28;;;18.05;37.95
42691;BME280;28306;55.744;37.578;2022-09-09T11:51:31;100902.72;;;18.02;37.92
42691;BME280;28306;55.744;37.578;2022-09-09T11:54:02;100902.06;;;18.00;37.93
42691;BME280;28306;55.744;37.578;2022-09-09T11:56:32;100908.47;;;17.99;37.84
42691;BME280;28306;55.744;37.578;2022-09-09T11:59:02;100911.16;;;17.99;38.04
42691;BME280;28306;55.744;37.578;2022-09-09T12:01:41;100902.63;;;17.95;38.11
42691;BME280;28306;55.744;37.578;2022-09-09T12:04:35;100904.94;;;17.98;38.13
42691;BME280;28306;55.744;37.578;2022-09-09T12:07:30;100896.88;;;17.98;38.03
42691;BME280;28306;55.744;37.578;2022-09-09T12:10:05;100897.25;;;17.95;38.14
42691;BME280;28306;55.744;37.578;2022-09-09T12:12:44;100892.13;;;17.86;38.02
42691;BME280;28306;55.744;37.578;2022-09-09T12:28:55;100910.16;;;18.00;38.06
42691;BME280;28306;55.744;37.578;2022-09-09T12:31:46;100905.13;;;17.97;38.34
42691;BME280;28306;55.744;37.578;2022-09-09T12:34:47;100896.50;;;18.01;38.15
42691;BME280;28306;55.744;37.578;2022-09-09T12:39:55;100870.06;;;17.90;38.13
42691;BME280;28306;55.744;37.578;2022-09-09T12:42:22;100892.41;;;18.06;38.04
42691;BME280;28306;55.744;37.578;2022-09-09T12:44:57;100899.94;;;18.10;37.87
42691;BME280;28306;55.744;37.578;2022-09-09T12:47:37;100899.25;;;18.08;37.88
42691;BME280;28306;55.744;37.578;2022-09-09T12:50:15;100894.72;;;18.09;37.94
42691;BME280;28306;55.744;37.578;2022-09-09T12:52:42;100890.72;;;18.05;37.88
42691;BME280;28306;55.744;37.578;2022-09-09T12:55:28;100898.38;;;18.23;37.79
42691;BME280;28306;55.744;37.578;2022-09-09T12:57:56;100886.25;;;18.48;37.38
42691;BME280;28306;55.744;37.578;2022-09-09T13:00:24;100894.97;;;18.94;36.63
42691;BME280;28306;55.744;37.578;2022-09-09T13:02:53;100891.72;;;19.33;35.98
42691;BME280;28306;55.744;37.578;2022-09-09T13:05:23;100898.09;;;19.60;35.75
42691;BME280;28306;55.744;37.578;2022-09-09T13:07:50;100889.31;;;19.80;35.50
42691;BME280;28306;55.744;37.578;2022-09-09T13:10:23;100899.22;;;20.08;34.96
42691;BME280;28306;55.744;37.578;2022-09-09T13:12:52;100899.41;;;20.06;34.97
42691;BME280;28306;55.744;37.578;2022-09-09T13:15:23;100886.50;;;20.02;34.63
42691;BME280;28306;55.744;37.578;2022-09-09T13:17:52;100902.59;;;20.37;34.77
42691;BME280;28306;55.744;37.578;2022-09-09T13:20:19;100896.13;;;20.24;34.75
42691;BME280;28306;55.744;37.578;2022-09-09T13:22:47;100896.38;;;20.36;34.38
42691;BME280;28306;55.744;37.578;2022-09-09T13:25:22;100897.81;;;20.45;34.47
42691;BME280;28306;55.744;37.578;2022-09-09T13:30:28;100872.94;;;20.90;34.13
42691;BME280;28306;55.744;37.578;2022-09-09T13:33:30;100890.16;;;21.36;33.57
42691;BME280;28306;55.744;37.578;2022-09-09T13:35:59;100876.47;;;21.24;33.35
42691;BME280;28306;55.744;37.578;2022-09-09T13:38:29;100887.88;;;21.46;33.23
42691;BME280;28306;55.744;37.578;2022-09-09T13:41:06;100887.06;;;21.32;33.28
42691;BME280;28306;55.744;37.578;2022-09-09T13:43:38;100887.50;;;21.09;32.84
42691;BME280;28306;55.744;37.578;2022-09-09T13:46:36;100894.59;;;20.97;33.74
42691;BME280;28306;55.744;37.578;2022-09-09T13:51:38;100889.31;;;21.42;33.00
42691;BME280;28306;55.744;37.578;2022-09-09T13:54:05;100890.16;;;21.56;32.63
42691;BME280;28306;55.744;37.578;2022-09-09T13:56:35;100889.53;;;21.40;32.73
42691;BME280;28306;55.744;37.578;2022-09-09T13:59:02;100883.31;;;21.27;32.85
42691;BME280;28306;55.744;37.578;2022-09-09T14:01:28;100873.94;;;21.36;32.68
42691;BME280;28306;55.744;37.578;2022-09-09T14:03:54;100885.59;;;21.43;32.49
42691;BME280;28306;55.744;37.578;2022-09-09T14:06:20;100858.75;;;21.35;32.55
42691;BME280;28306;55.744;37.578;2022-09-09T14:08:48;100882.44;;;21.66;32.24
42691;BME280;28306;55.744;37.578;2022-09-09T14:11:15;100877.56;;;21.82;31.72
42691;BME280;28306;55.744;37.578;2022-09-09T14:13:41;100871.50;;;21.93;31.50
42691;BME280;28306;55.744;37.578;2022-09-09T14:16:07;100862.72;;;21.98;31.49
42691;BME280;28306;55.744;37.578;2022-09-09T14:18:32;100876.34;;;22.23;31.50
42691;BME280;28306;55.744;37.578;2022-09-09T14:20:59;100879.63;;;22.31;31.23
42691;BME280;28306;55.744;37.578;2022-09-09T14:23:25;100857.59;;;22.14;31.21
42691;BME280;28306;55.744;37.578;2022-09-09T14:25:51;100881.94;;;22.28;31.27
42691;BME280;28306;55.744;37.578;2022-09-09T14:28:17;100879.41;;;22.33;30.87
42691;BME280;28306;55.744;37.578;2022-09-09T14:30:43;100886.69;;;22.39;30.90
42691;BME280;28306;55.744;37.578;2022-09-09T14:33:14;100886.63;;;22.46;30.66
42691;BME280;28306;55.744;37.578;2022-09-09T14:35:41;100886.81;;;22.51;30.63
42691;BME280;28306;55.744;37.578;2022-09-09T14:38:07;100885.31;;;22.55;30.66
42691;BME280;28306;55.744;37.578;2022-09-09T14:40:35;100873.06;;;22.53;30.51
42691;BME280;28306;55.744;37.578;2022-09-09T14:43:01;100885.94;;;22.57;30.24
42691;BME280;28306;55.744;37.578;2022-09-09T14:45:27;100880.06;;;22.35;30.41
42691;BME280;28306;55.744;37.578;2022-09-09T14:47:53;100879.06;;;22.23;30.68
42691;BME280;28306;55.744;37.578;2022-09-09T14:50:20;100884.34;;;22.04;31.06
42691;BME280;28306;55.744;37.578;2022-09-09T14:55:12;100881.97;;;21.76;31.44
42691;BME280;28306;55.744;37.578;2022-09-09T14:57:38;100886.59;;;21.62;31.37
42691;BME280;28306;55.744;37.578;2022-09-09T15:00:06;100878.28;;;21.50;32.06
42691;BME280;28306;55.744;37.578;2022-09-09T15:02:32;100870.19;;;21.37;32.20
42691;BME280;28306;55.744;37.578;2022-09-09T15:04:58;100867.72;;;21.29;32.27
42691;BME280;28306;55.744;37.578;2022-09-09T15:07:27;100875.63;;;21.17;31.99
42691;BME280;28306;55.744;37.578;2022-09-09T15:09:54;100874.59;;;21.11;32.02
42691;BME280;28306;55.744;37.578;2022-09-09T15:12:20;100872.53;;;21.00;32.01
42691;BME280;28306;55.744;37.578;2022-09-09T15:14:46;100881.25;;;20.95;32.15
42691;BME280;28306;55.744;37.578;2022-09-09T15:17:12;100871.69;;;20.79;32.54
42691;BME280;28306;55.744;37.578;2022-09-09T15:19:38;100872.53;;;20.80;32.54
42691;BME280;28306;55.744;37.578;2022-09-09T15:22:05;100883.75;;;20.70;31.79